createdAt,value
2016-11-24T00:00:41.832Z,8.28
2016-11-24T00:01:41.806Z,8.25
2016-11-24T00:02:41.802Z,8.26
2016-11-24T00:03:41.797Z,8.29
2016-11-24T00:04:41.780Z,8.34
2016-11-24T00:05:41.772Z,8.3
2016-11-24T00:06:41.764Z,8.26
2016-11-24T00:07:41.747Z,8.33
2016-11-24T00:08:41.739Z,8.37
2016-11-24T00:09:41.741Z,8.36
2016-11-24T00:10:42.040Z,8.45
2016-11-24T00:11:41.719Z,8.37
2016-11-24T00:12:41.710Z,8.43
2016-11-24T00:13:41.699Z,8.4
2016-11-24T00:14:41.695Z,8.45
2016-11-24T00:15:41.685Z,8.44
2016-11-24T00:16:41.672Z,8.47
2016-11-24T00:17:41.662Z,8.47
2016-11-24T00:18:41.646Z,8.5
2016-11-24T00:19:41.642Z,8.47
2016-11-24T00:20:41.632Z,8.5
2016-11-24T00:21:41.622Z,8.5
2016-11-24T00:22:41.611Z,8.44
2016-11-24T00:23:41.597Z,8.45
2016-11-24T00:24:41.591Z,8.4
2016-11-24T00:25:41.576Z,8.37
2016-11-24T00:26:41.573Z,8.34
2016-11-24T00:27:41.567Z,8.34
2016-11-24T00:28:41.553Z,8.28
2016-11-24T00:29:41.546Z,8.11
2016-11-24T00:30:41.539Z,8.01
2016-11-24T00:31:41.527Z,8
2016-11-24T00:32:41.541Z,8
2016-11-24T00:33:41.515Z,7.98
2016-11-24T00:34:41.500Z,8.01
2016-11-24T00:35:41.485Z,8.01
2016-11-24T00:36:41.475Z,8
2016-11-24T00:37:41.464Z,8.04
2016-11-24T00:38:41.456Z,7.98
2016-11-24T00:39:41.447Z,8.11
2016-11-24T00:40:41.439Z,8.22
2016-11-24T00:41:41.423Z,8.18
2016-11-24T00:42:41.425Z,8.18
2016-11-24T00:43:41.414Z,8.2
2016-11-24T00:44:41.399Z,8.11
2016-11-24T00:45:41.387Z,8.18
2016-11-24T00:46:41.379Z,8.16
2016-11-24T00:47:41.373Z,8.15
2016-11-24T00:48:41.365Z,8.16
2016-11-24T00:49:41.350Z,8.12
2016-11-24T00:50:41.345Z,8.28
2016-11-24T00:51:41.334Z,8.2
2016-11-24T00:52:41.324Z,8.28
2016-11-24T00:53:41.307Z,8.29
2016-11-24T00:54:41.302Z,8.34
2016-11-24T00:55:41.293Z,8.33
2016-11-24T00:56:41.283Z,8.41
2016-11-24T00:57:41.274Z,8.38
2016-11-24T00:58:41.262Z,8.44
2016-11-24T00:59:41.257Z,8.43
2016-11-24T01:00:41.248Z,8.45
2016-11-24T01:01:41.239Z,8.5
2016-11-24T01:02:41.231Z,8.48
2016-11-24T01:03:41.226Z,8.45
2016-11-24T01:04:41.207Z,8.47
2016-11-24T01:05:41.197Z,8.43
2016-11-24T01:06:41.184Z,8.41
2016-11-24T01:07:41.489Z,8.44
2016-11-24T01:08:41.169Z,8.52
2016-11-24T01:09:41.154Z,8.37
2016-11-24T01:10:41.151Z,8.47
2016-11-24T01:11:41.141Z,8.43
2016-11-24T01:12:41.131Z,8.37
2016-11-24T01:13:41.129Z,8.33
2016-11-24T01:14:41.110Z,8.28
2016-11-24T01:15:41.102Z,8.18
2016-11-24T01:16:41.088Z,8.16
2016-11-24T01:17:41.087Z,8.08
2016-11-24T01:18:41.077Z,8.02
2016-11-24T01:19:41.067Z,7.98
2016-11-24T01:20:41.052Z,7.87
2016-11-24T01:21:41.051Z,7.98
2016-11-24T01:22:41.038Z,7.97
2016-11-24T01:23:41.031Z,8.02
2016-11-24T01:24:41.039Z,8.04
2016-11-24T01:25:41.006Z,8
2016-11-24T01:26:40.994Z,8.19
2016-11-24T01:27:40.983Z,8.08
2016-11-24T01:28:40.978Z,8.15
2016-11-24T01:29:40.970Z,8.16
2016-11-24T01:30:41.008Z,8.16
2016-11-24T01:31:40.947Z,8.1
2016-11-24T01:32:40.943Z,8.02
2016-11-24T01:33:40.930Z,8.04
2016-11-24T01:34:40.957Z,8.18
2016-11-24T01:35:40.940Z,8.12
2016-11-24T01:36:40.901Z,8.11
2016-11-24T01:37:40.890Z,8.15
2016-11-24T01:38:40.879Z,7.98
2016-11-24T01:39:40.875Z,8.02
2016-11-24T01:40:40.867Z,8.04
2016-11-24T01:41:40.853Z,8.01
2016-11-24T01:42:40.853Z,8.15
2016-11-24T01:43:41.144Z,8.12
2016-11-24T01:44:40.830Z,8.15
2016-11-24T01:45:40.818Z,8.11
2016-11-24T01:46:40.806Z,8.22
2016-11-24T01:47:40.799Z,8.25
2016-11-24T01:48:40.786Z,8.15
2016-11-24T01:49:40.787Z,8.16
2016-11-24T01:50:40.763Z,8.2
2016-11-24T01:51:40.761Z,8.25
2016-11-24T01:52:40.749Z,8.26
2016-11-24T01:53:40.743Z,8.26
2016-11-24T01:54:40.734Z,8.29
2016-11-24T01:55:40.772Z,8.3
2016-11-24T01:56:40.713Z,8.36
2016-11-24T01:57:40.697Z,8.33
2016-11-24T01:58:40.693Z,8.3
2016-11-24T01:59:40.690Z,8.29
2016-11-24T02:00:40.678Z,8.41
2016-11-24T02:01:40.667Z,8.4
2016-11-24T02:02:40.653Z,8.4
2016-11-24T02:03:40.643Z,8.41
2016-11-24T02:04:40.636Z,8.38
2016-11-24T02:05:40.626Z,8.34
2016-11-24T02:06:40.616Z,8.37
2016-11-24T02:07:40.606Z,8.38
2016-11-24T02:08:40.604Z,8.43
2016-11-24T02:09:40.594Z,8.38
2016-11-24T02:10:40.582Z,8.38
2016-11-24T02:11:40.569Z,8.36
2016-11-24T02:12:40.593Z,8.36
2016-11-24T02:13:40.546Z,8.34
2016-11-24T02:14:40.540Z,8.36
2016-11-24T02:15:40.531Z,8.33
2016-11-24T02:16:40.522Z,8.25
2016-11-24T02:17:40.507Z,8.05
2016-11-24T02:18:40.503Z,8.16
2016-11-24T02:19:40.490Z,8
2016-11-24T02:20:40.486Z,8.15
2016-11-24T02:21:40.474Z,8.15
2016-11-24T02:22:40.464Z,8.12
2016-11-24T02:23:40.458Z,8.12
2016-11-24T02:24:40.442Z,8.19
2016-11-24T02:25:40.434Z,8.2
2016-11-24T02:26:40.429Z,8.25
2016-11-24T02:27:40.418Z,8.19
2016-11-24T02:28:40.401Z,8.25
2016-11-24T02:29:40.706Z,8.22
2016-11-24T02:30:40.392Z,8.26
2016-11-24T02:31:40.372Z,8.19
2016-11-24T02:32:40.397Z,8.15
2016-11-24T02:33:40.362Z,8.05
2016-11-24T02:34:40.353Z,8.12
2016-11-24T02:35:40.333Z,8.02
2016-11-24T02:36:40.328Z,8.02
2016-11-24T02:37:40.623Z,8.04
2016-11-24T02:38:40.310Z,8.01
2016-11-24T02:39:40.302Z,8
2016-11-24T02:40:40.633Z,8.12
2016-11-24T02:41:40.291Z,8
2016-11-24T02:42:40.280Z,8.02
2016-11-24T02:43:40.254Z,8.16
2016-11-24T02:44:40.254Z,8.11
2016-11-24T02:45:40.239Z,8.16
2016-11-24T02:46:40.234Z,8.16
2016-11-24T02:47:40.220Z,8.1
2016-11-24T02:48:40.214Z,8.19
2016-11-24T02:49:40.206Z,8.26
2016-11-24T02:50:40.194Z,8.18
2016-11-24T02:51:40.180Z,8.18
2016-11-24T02:52:40.173Z,8.29
2016-11-24T02:53:40.162Z,8.22
2016-11-24T02:54:40.154Z,8.28
2016-11-24T02:55:40.149Z,8.28
2016-11-24T02:56:40.131Z,8.25
2016-11-24T02:57:40.135Z,8.28
2016-11-24T02:58:40.120Z,8.3
2016-11-24T02:59:40.111Z,8.26
2016-11-24T03:00:40.092Z,8.28
2016-11-24T03:01:40.087Z,8.29
2016-11-24T03:02:40.083Z,8.33
2016-11-24T03:03:40.075Z,8.25
2016-11-24T03:04:40.056Z,8.33
2016-11-24T03:05:40.048Z,8.37
2016-11-24T03:06:40.036Z,8.3
2016-11-24T03:07:40.029Z,8.33
2016-11-24T03:08:40.023Z,8.36
2016-11-24T03:09:40.320Z,8.37
2016-11-24T03:10:40.010Z,8.28
2016-11-24T03:11:39.991Z,8.18
2016-11-24T03:12:39.984Z,8.15
2016-11-24T03:13:39.978Z,8.11
2016-11-24T03:14:39.965Z,8.05
2016-11-24T03:15:39.950Z,7.95
2016-11-24T03:16:39.945Z,7.86
2016-11-24T03:17:39.970Z,7.8
2016-11-24T03:18:39.922Z,7.8
2016-11-24T03:19:39.912Z,7.79
2016-11-24T03:20:39.913Z,7.8
2016-11-24T03:21:39.926Z,7.82
2016-11-24T03:22:39.881Z,7.79
2016-11-24T03:23:39.880Z,7.9
2016-11-24T03:24:39.860Z,7.79
2016-11-24T03:25:39.863Z,7.79
2016-11-24T03:26:39.845Z,7.74
2016-11-24T03:27:39.837Z,7.67
2016-11-24T03:28:39.822Z,7.69
2016-11-24T03:29:39.820Z,7.57
2016-11-24T03:30:39.815Z,7.68
2016-11-24T03:31:39.796Z,7.69
2016-11-24T03:32:39.790Z,7.67
2016-11-24T03:33:39.787Z,7.67
2016-11-24T03:34:39.768Z,7.74
2016-11-24T03:35:39.756Z,7.77
2016-11-24T03:36:39.757Z,7.61
2016-11-24T03:37:39.744Z,7.67
2016-11-24T03:38:39.733Z,7.57
2016-11-24T03:39:39.726Z,7.53
2016-11-24T03:40:39.708Z,7.63
2016-11-24T03:41:39.700Z,7.63
2016-11-24T03:42:39.689Z,7.49
2016-11-24T03:43:39.682Z,7.57
2016-11-24T03:44:39.675Z,7.42
2016-11-24T03:45:39.658Z,7.5
2016-11-24T03:46:39.651Z,7.46
2016-11-24T03:47:39.641Z,7.46
2016-11-24T03:48:39.628Z,7.55
2016-11-24T03:49:39.619Z,7.42
2016-11-24T03:50:39.605Z,7.43
2016-11-24T03:51:39.605Z,7.5
2016-11-24T03:52:39.591Z,7.46
2016-11-24T03:53:39.577Z,7.39
2016-11-24T03:54:39.578Z,7.48
2016-11-24T03:55:39.558Z,7.48
2016-11-24T03:56:39.548Z,7.39
2016-11-24T03:57:39.537Z,7.35
2016-11-24T03:58:39.533Z,7.35
2016-11-24T03:59:39.520Z,7.3
2016-11-24T04:00:39.507Z,7.23
2016-11-24T04:01:39.500Z,7.24
2016-11-24T04:02:39.489Z,7.24
2016-11-24T04:03:39.474Z,7.23
2016-11-24T04:04:39.468Z,7.23
2016-11-24T04:05:39.469Z,7.17
2016-11-24T04:06:39.456Z,7.27
2016-11-24T04:07:39.439Z,7.17
2016-11-24T04:08:39.428Z,7.17
2016-11-24T04:09:39.424Z,7.13
2016-11-24T04:10:39.404Z,7.06
2016-11-24T04:11:39.396Z,7.07
2016-11-24T04:12:39.396Z,7.03
2016-11-24T04:13:39.379Z,7.17
2016-11-24T04:14:39.369Z,7.17
2016-11-24T04:15:39.354Z,7.17
2016-11-24T04:16:39.346Z,7.15
2016-11-24T04:17:39.338Z,7.16
2016-11-24T04:18:39.332Z,7.2
2016-11-24T04:19:39.323Z,7.15
2016-11-24T04:20:39.314Z,7.06
2016-11-24T04:21:39.299Z,7.05
2016-11-24T04:22:39.284Z,7.16
2016-11-24T04:23:39.281Z,7.16
2016-11-24T04:24:39.268Z,7.06
2016-11-24T04:25:39.257Z,7.12
2016-11-24T04:26:39.247Z,7.07
2016-11-24T04:27:39.242Z,7.12
2016-11-24T04:28:39.225Z,7.16
2016-11-24T04:29:39.213Z,7.24
2016-11-24T04:30:39.209Z,7.23
2016-11-24T04:31:39.199Z,7.31
2016-11-24T04:32:39.175Z,7.32
2016-11-24T04:33:39.166Z,7.28
2016-11-24T04:34:39.162Z,7.25
2016-11-24T04:35:39.148Z,7.28
2016-11-24T04:36:39.144Z,7.25
2016-11-24T04:37:39.126Z,7.27
2016-11-24T04:38:39.126Z,7.31
2016-11-24T04:39:39.112Z,7.27
2016-11-24T04:40:39.100Z,7.24
2016-11-24T04:41:39.086Z,7.31
2016-11-24T04:42:39.086Z,7.34
2016-11-24T04:43:39.066Z,7.28
2016-11-24T04:44:39.362Z,7.4
2016-11-24T04:45:39.046Z,7.4
2016-11-24T04:46:39.039Z,7.45
2016-11-24T04:47:39.062Z,7.4
2016-11-24T04:48:39.017Z,7.43
2016-11-24T04:49:39.012Z,7.53
2016-11-24T04:50:38.994Z,7.46
2016-11-24T04:51:38.984Z,7.49
2016-11-24T04:52:38.979Z,7.64
2016-11-24T04:53:38.966Z,7.61
2016-11-24T04:54:38.953Z,7.55
2016-11-24T04:55:38.943Z,7.58
2016-11-24T04:56:38.934Z,7.55
2016-11-24T04:57:38.964Z,7.6
2016-11-24T04:58:38.917Z,7.57
2016-11-24T04:59:38.910Z,7.6
2016-11-24T05:00:38.903Z,7.52
2016-11-24T05:01:38.887Z,7.64
2016-11-24T05:02:38.884Z,7.55
2016-11-24T05:03:38.868Z,7.6
2016-11-24T05:04:38.860Z,7.69
2016-11-24T05:05:38.850Z,7.67
2016-11-24T05:06:38.844Z,7.67
2016-11-24T05:07:38.827Z,7.67
2016-11-24T05:08:38.814Z,7.69
2016-11-24T05:09:38.804Z,7.72
2016-11-24T05:10:38.797Z,7.63
2016-11-24T05:11:38.786Z,7.58
2016-11-24T05:12:38.779Z,7.52
2016-11-24T05:13:38.762Z,7.48
2016-11-24T05:14:38.753Z,7.49
2016-11-24T05:15:38.744Z,7.48
2016-11-24T05:16:38.734Z,7.45
2016-11-24T05:17:38.727Z,7.45
2016-11-24T05:18:38.714Z,7.45
2016-11-24T05:19:38.705Z,7.42
2016-11-24T05:20:38.698Z,7.49
2016-11-24T05:21:38.685Z,7.42
2016-11-24T05:22:38.671Z,7.32
2016-11-24T05:23:38.663Z,7.35
2016-11-24T05:24:38.653Z,7.39
2016-11-24T05:25:38.644Z,7.39
2016-11-24T05:26:38.631Z,7.28
2016-11-24T05:27:38.619Z,7.32
2016-11-24T05:28:38.617Z,7.34
2016-11-24T05:29:38.602Z,7.3
2016-11-24T05:30:38.623Z,7.24
2016-11-24T05:31:38.578Z,7.3
2016-11-24T05:32:38.570Z,7.31
2016-11-24T05:33:38.559Z,7.28
2016-11-24T05:34:38.545Z,7.37
2016-11-24T05:35:38.544Z,7.57
2016-11-24T05:36:38.531Z,7.48
2016-11-24T05:37:38.516Z,7.55
2016-11-24T05:38:38.515Z,7.61
2016-11-24T05:39:38.502Z,7.6
2016-11-24T05:40:38.496Z,7.57
2016-11-24T05:41:38.481Z,7.6
2016-11-24T05:42:38.465Z,7.58
2016-11-24T05:43:38.451Z,7.68
2016-11-24T05:44:38.456Z,7.69
2016-11-24T05:45:38.467Z,7.69
2016-11-24T05:46:38.426Z,7.74
2016-11-24T05:47:38.420Z,7.82
2016-11-24T05:48:38.402Z,7.67
2016-11-24T05:49:38.407Z,7.67
2016-11-24T05:50:38.395Z,7.75
2016-11-24T05:51:38.389Z,7.71
2016-11-24T05:52:38.369Z,7.71
2016-11-24T05:53:38.362Z,7.74
2016-11-24T05:54:38.350Z,7.79
2016-11-24T05:55:38.336Z,7.77
2016-11-24T05:56:38.336Z,7.82
2016-11-24T05:57:38.316Z,7.83
2016-11-24T05:58:38.311Z,7.85
2016-11-24T05:59:38.297Z,7.87
2016-11-24T06:00:38.285Z,7.95
2016-11-24T06:01:38.287Z,8.01
2016-11-24T06:02:38.276Z,7.86
2016-11-24T06:03:38.295Z,7.89
2016-11-24T06:04:38.552Z,7.86
2016-11-24T06:05:38.234Z,7.8
2016-11-24T06:06:38.535Z,7.74
2016-11-24T06:07:38.221Z,7.75
2016-11-24T06:08:38.207Z,7.8
2016-11-24T06:09:38.198Z,7.77
2016-11-24T06:10:38.190Z,7.82
2016-11-24T06:11:38.182Z,7.89
2016-11-24T06:12:38.169Z,7.87
2016-11-24T06:13:38.154Z,7.92
2016-11-24T06:14:38.147Z,8.01
2016-11-24T06:15:38.139Z,7.97
2016-11-24T06:16:38.134Z,8.01
2016-11-24T06:17:38.116Z,7.93
2016-11-24T06:18:38.106Z,8
2016-11-24T06:19:38.143Z,7.95
2016-11-24T06:20:38.118Z,7.9
2016-11-24T06:21:38.079Z,7.85
2016-11-24T06:22:38.069Z,7.89
2016-11-24T06:23:38.058Z,7.87
2016-11-24T06:24:38.052Z,7.86
2016-11-24T06:25:38.042Z,7.85
2016-11-24T06:26:38.031Z,7.89
2016-11-24T06:27:38.024Z,7.82
2016-11-24T06:28:38.015Z,7.72
2016-11-24T06:29:37.999Z,7.82
2016-11-24T06:30:37.991Z,7.79
2016-11-24T06:31:37.986Z,7.83
2016-11-24T06:32:37.972Z,7.68
2016-11-24T06:33:37.959Z,7.6
2016-11-24T06:34:38.292Z,7.57
2016-11-24T06:35:37.937Z,7.52
2016-11-24T06:36:37.936Z,7.6
2016-11-24T06:37:37.923Z,7.57
2016-11-24T06:38:37.912Z,7.6
2016-11-24T06:39:37.904Z,7.52
2016-11-24T06:40:37.898Z,7.48
2016-11-24T06:41:37.883Z,7.53
2016-11-24T06:42:37.873Z,7.46
2016-11-24T06:43:37.866Z,7.61
2016-11-24T06:44:37.851Z,7.67
2016-11-24T06:45:37.837Z,7.52
2016-11-24T06:46:37.834Z,7.53
2016-11-24T06:47:37.818Z,7.69
2016-11-24T06:48:37.819Z,7.55
2016-11-24T06:49:37.808Z,7.74
2016-11-24T06:50:37.794Z,7.83
2016-11-24T06:51:37.794Z,7.75
2016-11-24T06:52:37.776Z,7.77
2016-11-24T06:53:37.769Z,7.77
2016-11-24T06:54:37.762Z,7.8
2016-11-24T06:55:37.743Z,7.8
2016-11-24T06:56:37.742Z,7.82
2016-11-24T06:57:37.735Z,7.85
2016-11-24T06:58:38.021Z,7.89
2016-11-24T06:59:37.710Z,7.87
2016-11-24T07:00:37.699Z,7.82
2016-11-24T07:01:37.680Z,7.93
2016-11-24T07:02:37.675Z,7.85
2016-11-24T07:03:37.665Z,7.86
2016-11-24T07:04:37.652Z,7.92
2016-11-24T07:05:37.650Z,7.85
2016-11-24T07:06:37.641Z,7.92
2016-11-24T07:07:37.628Z,8
2016-11-24T07:08:37.623Z,7.95
2016-11-24T07:09:37.605Z,8.02
2016-11-24T07:10:37.597Z,8.02
2016-11-24T07:11:37.911Z,8
2016-11-24T07:12:37.572Z,8.02
2016-11-24T07:13:37.573Z,7.98
2016-11-24T07:14:37.559Z,8.02
2016-11-24T07:15:37.561Z,8.07
2016-11-24T07:16:37.576Z,8.05
2016-11-24T07:17:37.536Z,8.15
2016-11-24T07:18:37.524Z,8.16
2016-11-24T07:19:37.513Z,8.12
2016-11-24T07:20:37.505Z,8.26
2016-11-24T07:21:37.499Z,8.26
2016-11-24T07:22:37.481Z,8.33
2016-11-24T07:23:37.479Z,8.28
2016-11-24T07:24:37.456Z,8.33
2016-11-24T07:25:37.450Z,8.29
2016-11-24T07:26:37.437Z,8.3
2016-11-24T07:27:37.433Z,8.18
2016-11-24T07:28:37.428Z,8.2
2016-11-24T07:29:37.416Z,8.18
2016-11-24T07:30:37.403Z,8.11
2016-11-24T07:31:37.399Z,8.15
2016-11-24T07:32:37.389Z,8.16
2016-11-24T07:33:37.381Z,8.16
2016-11-24T07:34:37.363Z,8.12
2016-11-24T07:35:37.359Z,8.18
2016-11-24T07:36:37.352Z,7.98
2016-11-24T07:37:37.339Z,8
2016-11-24T07:38:37.334Z,8.1
2016-11-24T07:39:37.318Z,8.07
2016-11-24T07:40:37.309Z,8.02
2016-11-24T07:41:37.301Z,8
2016-11-24T07:42:37.285Z,8.04
2016-11-24T07:43:37.280Z,8.01
2016-11-24T07:44:37.276Z,8.05
2016-11-24T07:45:37.272Z,8.1
2016-11-24T07:46:37.254Z,8.08
2016-11-24T07:47:37.251Z,8.08
2016-11-24T07:48:37.228Z,8.02
2016-11-24T07:49:37.232Z,8.12
2016-11-24T07:50:37.215Z,8.15
2016-11-24T07:51:37.207Z,8.15
2016-11-24T07:52:37.202Z,8.23
2016-11-24T07:53:37.189Z,8.12
2016-11-24T07:54:37.183Z,8.23
2016-11-24T07:55:37.178Z,8.25
2016-11-24T07:56:37.165Z,8.25
2016-11-24T07:57:37.154Z,8.25
2016-11-24T07:58:37.151Z,8.26
2016-11-24T07:59:37.130Z,8.28
2016-11-24T08:00:37.129Z,8.28
2016-11-24T08:01:37.106Z,8.25
2016-11-24T08:02:37.105Z,8.25
2016-11-24T08:03:37.093Z,8.25
2016-11-24T08:04:37.120Z,8.33
2016-11-24T08:05:37.073Z,8.29
2016-11-24T08:06:37.064Z,8.33
2016-11-24T08:07:37.057Z,8.34
2016-11-24T08:08:37.047Z,8.33
2016-11-24T08:09:37.352Z,8.36
2016-11-24T08:10:37.031Z,8.36
2016-11-24T08:11:37.026Z,8.41
2016-11-24T08:12:37.012Z,8.33
2016-11-24T08:13:37.004Z,8.45
2016-11-24T08:14:37.303Z,8.43
2016-11-24T08:15:36.984Z,8.45
2016-11-24T08:16:36.968Z,8.45
2016-11-24T08:17:36.962Z,8.33
2016-11-24T08:18:36.954Z,8.52
2016-11-24T08:19:36.949Z,8.44
2016-11-24T08:20:36.949Z,8.45
2016-11-24T08:21:36.930Z,8.41
2016-11-24T08:22:36.924Z,8.45
2016-11-24T08:23:36.909Z,8.45
2016-11-24T08:24:36.893Z,8.45
2016-11-24T08:25:36.922Z,8.48
2016-11-24T08:26:36.884Z,8.45
2016-11-24T08:27:36.876Z,8.47
2016-11-24T08:28:36.866Z,8.45
2016-11-24T08:29:37.157Z,8.55
2016-11-24T08:30:36.841Z,8.53
2016-11-24T08:31:36.838Z,8.58
2016-11-24T08:32:36.838Z,8.59
2016-11-24T08:33:36.821Z,8.71
2016-11-24T08:34:36.819Z,8.65
2016-11-24T08:35:36.798Z,8.74
2016-11-24T08:36:36.793Z,8.71
2016-11-24T08:37:36.789Z,8.66
2016-11-24T08:38:36.778Z,8.76
2016-11-24T08:39:36.770Z,8.81
2016-11-24T08:40:36.799Z,8.96
2016-11-24T08:41:36.753Z,8.99
2016-11-24T08:42:36.781Z,9.04
2016-11-24T08:43:36.735Z,9.1
2016-11-24T08:44:36.726Z,9.17
2016-11-24T08:45:36.716Z,9.11
2016-11-24T08:46:36.717Z,9.05
2016-11-24T08:47:36.698Z,9.11
2016-11-24T08:48:36.695Z,9.08
2016-11-24T08:49:36.681Z,9.01
2016-11-24T08:50:36.700Z,9.02
2016-11-24T08:51:36.672Z,8.99
2016-11-24T08:52:36.654Z,8.95
2016-11-24T08:53:36.663Z,8.94
2016-11-24T08:54:36.643Z,8.83
2016-11-24T08:55:36.638Z,8.8
2016-11-24T08:56:36.621Z,8.8
2016-11-24T08:57:36.618Z,8.76
2016-11-24T08:58:36.610Z,8.8
2016-11-24T08:59:36.600Z,8.71
2016-11-24T09:00:36.594Z,8.79
2016-11-24T09:01:36.590Z,8.7
2016-11-24T09:02:36.593Z,8.73
2016-11-24T09:03:36.563Z,8.83
2016-11-24T09:04:36.558Z,8.83
2016-11-24T09:05:36.542Z,8.73
2016-11-24T09:06:36.841Z,8.66
2016-11-24T09:07:36.524Z,8.7
2016-11-24T09:08:36.523Z,8.68
2016-11-24T09:09:36.515Z,8.7
2016-11-24T09:10:36.511Z,8.59
2016-11-24T09:11:36.498Z,8.66
2016-11-24T09:12:36.484Z,8.66
2016-11-24T09:13:36.477Z,8.59
2016-11-24T09:14:36.472Z,8.58
2016-11-24T09:15:36.457Z,8.56
2016-11-24T09:16:36.473Z,8.48
2016-11-24T09:17:36.448Z,8.55
2016-11-24T09:18:36.433Z,8.5
2016-11-24T09:19:36.422Z,8.5
2016-11-24T09:20:36.424Z,8.52
2016-11-24T09:21:36.411Z,8.52
2016-11-24T09:22:36.398Z,8.59
2016-11-24T09:23:36.435Z,8.52
2016-11-24T09:24:36.381Z,8.5
2016-11-24T09:25:36.373Z,8.52
2016-11-24T09:26:36.369Z,8.48
2016-11-24T09:27:36.357Z,8.44
2016-11-24T09:28:36.350Z,8.36
2016-11-24T09:29:36.331Z,8.37
2016-11-24T09:30:36.335Z,8.37
2016-11-24T09:31:36.324Z,8.34
2016-11-24T09:32:36.311Z,8.36
2016-11-24T09:33:36.302Z,8.33
2016-11-24T09:34:36.292Z,8.3
2016-11-24T09:35:36.286Z,8.33
2016-11-24T09:36:36.277Z,8.3
2016-11-24T09:37:36.585Z,8.33
2016-11-24T09:38:36.257Z,8.4
2016-11-24T09:39:36.245Z,8.36
2016-11-24T09:40:36.241Z,8.33
2016-11-24T09:41:36.223Z,8.33
2016-11-24T09:42:36.222Z,8.3
2016-11-24T09:43:36.517Z,8.36
2016-11-24T09:44:36.205Z,8.37
2016-11-24T09:45:36.196Z,8.43
2016-11-24T09:46:36.187Z,8.44
2016-11-24T09:47:36.478Z,8.36
2016-11-24T09:48:36.173Z,8.34
2016-11-24T09:49:36.162Z,8.29
2016-11-24T09:50:36.148Z,8.29
2016-11-24T09:51:36.139Z,8.19
2016-11-24T09:52:36.130Z,8.12
2016-11-24T09:53:36.126Z,8.18
2016-11-24T09:54:36.115Z,8.02
2016-11-24T09:55:36.111Z,8.04
2016-11-24T09:56:36.094Z,8.02
2016-11-24T09:57:36.081Z,8.01
2016-11-24T09:58:36.074Z,8
2016-11-24T09:59:36.066Z,7.93
2016-11-24T10:00:36.056Z,7.98
2016-11-24T10:01:36.045Z,8.04
2016-11-24T10:02:36.042Z,8
2016-11-24T10:03:36.025Z,8.08
2016-11-24T10:04:36.023Z,8.02
2016-11-24T10:05:36.010Z,7.98
2016-11-24T10:06:36.009Z,8.12
2016-11-24T10:07:35.985Z,8.04
2016-11-24T10:08:35.984Z,8.01
2016-11-24T10:09:35.974Z,8.07
2016-11-24T10:10:35.962Z,8.02
2016-11-24T10:11:35.947Z,8
2016-11-24T10:12:35.948Z,7.97
2016-11-24T10:13:35.933Z,7.93
2016-11-24T10:14:35.929Z,7.79
2016-11-24T10:15:35.914Z,7.85
2016-11-24T10:16:35.909Z,7.82
2016-11-24T10:17:35.903Z,7.75
2016-11-24T10:18:36.202Z,7.83
2016-11-24T10:19:35.874Z,7.8
2016-11-24T10:20:35.873Z,7.86
2016-11-24T10:21:35.856Z,7.82
2016-11-24T10:22:36.153Z,7.77
2016-11-24T10:23:35.840Z,7.79
2016-11-24T10:24:35.834Z,7.86
2016-11-24T10:25:35.819Z,7.83
2016-11-24T10:26:35.812Z,7.89
2016-11-24T10:27:35.807Z,7.9
2016-11-24T10:28:35.792Z,7.85
2016-11-24T10:29:35.786Z,7.87
2016-11-24T10:30:35.800Z,7.86
2016-11-24T10:31:35.763Z,7.95
2016-11-24T10:32:35.755Z,7.89
2016-11-24T10:33:35.749Z,7.87
2016-11-24T10:34:35.739Z,7.89
2016-11-24T10:35:35.724Z,7.83
2016-11-24T10:36:35.782Z,7.92
2016-11-24T10:37:35.761Z,7.89
2016-11-24T10:38:35.700Z,7.89
2016-11-24T10:39:35.688Z,8.04
2016-11-24T10:40:35.672Z,7.98
2016-11-24T10:41:35.667Z,8
2016-11-24T10:42:35.669Z,7.92
2016-11-24T10:43:35.657Z,7.92
2016-11-24T10:44:35.640Z,8
2016-11-24T10:45:35.628Z,7.93
2016-11-24T10:46:35.617Z,7.97
2016-11-24T10:47:35.615Z,8.02
2016-11-24T10:48:35.609Z,8.01
2016-11-24T10:49:35.592Z,8.02
2016-11-24T10:50:35.616Z,8.1
2016-11-24T10:51:35.570Z,8.01
2016-11-24T10:52:35.562Z,8.01
2016-11-24T10:53:35.554Z,8.01
2016-11-24T10:54:35.548Z,8.01
2016-11-24T10:55:35.533Z,8.12
2016-11-24T10:56:35.527Z,8.18
2016-11-24T10:57:35.511Z,8.11
2016-11-24T10:58:35.548Z,8.15
2016-11-24T10:59:35.493Z,8.23
2016-11-24T11:00:35.491Z,8.16
2016-11-24T11:01:35.479Z,8.23
2016-11-24T11:02:35.477Z,8.19
2016-11-24T11:03:35.457Z,8.3
2016-11-24T11:04:35.452Z,8.29
2016-11-24T11:05:35.447Z,8.34
2016-11-24T11:06:35.742Z,8.44
2016-11-24T11:07:35.420Z,8.41
2016-11-24T11:08:35.416Z,8.45
2016-11-24T11:09:35.397Z,8.52
2016-11-24T11:10:35.403Z,8.43
2016-11-24T11:11:35.393Z,8.48
2016-11-24T11:12:35.373Z,8.44
2016-11-24T11:13:35.371Z,8.43
2016-11-24T11:14:35.359Z,8.37
2016-11-24T11:15:35.349Z,8.45
2016-11-24T11:16:35.338Z,8.44
2016-11-24T11:17:35.333Z,8.41
2016-11-24T11:18:35.318Z,8.48
2016-11-24T11:19:35.311Z,8.41
2016-11-24T11:20:35.305Z,8.45
2016-11-24T11:21:35.605Z,8.41
2016-11-24T11:22:35.291Z,8.47
2016-11-24T11:23:35.280Z,8.43
2016-11-24T11:24:35.570Z,8.33
2016-11-24T11:25:35.263Z,8.36
2016-11-24T11:26:35.251Z,8.36
2016-11-24T11:27:35.241Z,8.34
2016-11-24T11:28:35.227Z,8.37
2016-11-24T11:29:35.231Z,8.37
2016-11-24T11:30:35.212Z,8.33
2016-11-24T11:31:35.203Z,8.36
2016-11-24T11:32:35.215Z,8.33
2016-11-24T11:33:35.184Z,8.33
2016-11-24T11:34:35.183Z,8.36
2016-11-24T11:35:35.166Z,8.37
2016-11-24T11:36:35.166Z,8.45
2016-11-24T11:37:35.154Z,8.45
2016-11-24T11:38:35.140Z,8.5
2016-11-24T11:39:35.136Z,8.44
2016-11-24T11:40:35.123Z,8.43
2016-11-24T11:41:35.107Z,8.43
2016-11-24T11:42:35.104Z,8.4
2016-11-24T11:43:35.098Z,8.44
2016-11-24T11:44:35.081Z,8.34
2016-11-24T11:45:35.083Z,8.52
2016-11-24T11:46:35.070Z,8.45
2016-11-24T11:47:35.058Z,8.48
2016-11-24T11:48:35.052Z,8.43
2016-11-24T11:49:35.040Z,8.45
2016-11-24T11:50:35.340Z,8.37
2016-11-24T11:51:35.020Z,8.5
2016-11-24T11:52:35.321Z,8.5
2016-11-24T11:53:35.008Z,8.47
2016-11-24T11:54:35.018Z,8.55
2016-11-24T11:55:34.985Z,8.59
2016-11-24T11:56:34.978Z,8.63
2016-11-24T11:57:34.969Z,8.59
2016-11-24T11:58:34.963Z,8.65
2016-11-24T11:59:34.948Z,8.65
2016-11-24T12:00:34.941Z,8.65
2016-11-24T12:01:34.934Z,8.58
2016-11-24T12:02:34.930Z,8.56
2016-11-24T12:03:34.916Z,8.68
2016-11-24T12:04:34.913Z,8.71
2016-11-24T12:05:34.898Z,8.66
2016-11-24T12:06:34.886Z,8.71
2016-11-24T12:07:34.882Z,8.73
2016-11-24T12:08:34.867Z,8.8
2016-11-24T12:09:34.864Z,8.94
2016-11-24T12:10:34.857Z,8.91
2016-11-24T12:11:34.851Z,8.99
2016-11-24T12:12:34.837Z,9.13
2016-11-24T12:13:34.819Z,9.24
2016-11-24T12:14:34.818Z,9.35
2016-11-24T12:15:34.812Z,9.33
2016-11-24T12:16:34.795Z,9.4
2016-11-24T12:17:34.788Z,9.46
2016-11-24T12:18:34.782Z,9.4
2016-11-24T12:19:34.769Z,9.42
2016-11-24T12:20:34.776Z,9.36
2016-11-24T12:21:34.757Z,9.42
2016-11-24T12:22:34.762Z,9.39
2016-11-24T12:23:34.745Z,9.46
2016-11-24T12:24:34.740Z,9.5
2016-11-24T12:25:34.727Z,9.47
2016-11-24T12:26:34.722Z,9.54
2016-11-24T12:27:34.712Z,9.64
2016-11-24T12:28:34.702Z,9.72
2016-11-24T12:29:34.694Z,9.72
2016-11-24T12:30:34.675Z,9.72
2016-11-24T12:31:34.679Z,9.64
2016-11-24T12:32:34.671Z,9.65
2016-11-24T12:33:34.665Z,9.61
2016-11-24T12:34:34.653Z,9.54
2016-11-24T12:35:34.644Z,9.58
2016-11-24T12:36:34.633Z,9.58
2016-11-24T12:37:34.630Z,9.57
2016-11-24T12:38:34.624Z,9.6
2016-11-24T12:39:34.608Z,9.64
2016-11-24T12:40:34.604Z,9.65
2016-11-24T12:41:34.595Z,9.79
2016-11-24T12:42:34.584Z,9.9
2016-11-24T12:43:34.572Z,9.81
2016-11-24T12:44:34.607Z,9.83
2016-11-24T12:45:34.559Z,9.89
2016-11-24T12:46:34.559Z,9.91
2016-11-24T12:47:34.540Z,9.89
2016-11-24T12:48:34.541Z,9.99
2016-11-24T12:49:34.529Z,9.97
2016-11-24T12:50:34.526Z,10.04
2016-11-24T12:51:34.507Z,9.93
2016-11-24T12:52:34.501Z,9.91
2016-11-24T12:53:34.502Z,9.91
2016-11-24T12:54:34.489Z,9.91
2016-11-24T12:55:34.480Z,9.79
2016-11-24T12:56:34.509Z,9.86
2016-11-24T12:57:34.462Z,9.96
2016-11-24T12:58:34.458Z,9.97
2016-11-24T12:59:34.448Z,9.9
2016-11-24T13:00:34.440Z,9.86
2016-11-24T13:01:34.441Z,9.83
2016-11-24T13:02:34.428Z,9.83
2016-11-24T13:03:34.419Z,9.89
2016-11-24T13:04:34.432Z,9.86
2016-11-24T13:05:34.414Z,9.83
2016-11-24T13:06:34.399Z,9.87
2016-11-24T13:07:34.386Z,9.75
2016-11-24T13:08:34.380Z,9.65
2016-11-24T13:09:34.684Z,9.72
2016-11-24T13:10:34.367Z,9.68
2016-11-24T13:11:34.358Z,9.68
2016-11-24T13:12:34.346Z,9.68
2016-11-24T13:13:34.353Z,9.69
2016-11-24T13:14:34.330Z,9.61
2016-11-24T13:15:34.321Z,9.65
2016-11-24T13:16:34.311Z,9.61
2016-11-24T13:17:34.611Z,9.57
2016-11-24T13:18:34.303Z,9.57
2016-11-24T13:19:34.298Z,9.56
2016-11-24T13:20:34.287Z,9.51
2016-11-24T13:21:34.279Z,9.46
2016-11-24T13:22:34.297Z,9.5